Time;durP1;ratioP1;P1;durP2;ratioP2;P2;SDS_P1;SDS_P2;PMS_P1;PMS_P2;Temp;Humidity;BMP_temperature;BMP_pressure;BME280_temperature;BME280_humidity;BME280_pressure;Samples;Min_cycle;Max_cycle;Signal;HPM_P1;HPM_P2
2022/07/11 00:00:14;;;;;;;0.90;0.90;;;;;;;;;;5072907;28;20653;-84
2022/07/11 00:02:42;;;;;;;5.43;1.52;;;;;;;;;;5072984;28;20343;-84
2022/07/11 00:05:12;;;;;;;0.90;0.90;;;;;;;;;;5073613;28;20213;-84
2022/07/11 00:07:41;;;;;;;1.67;1.13;;;;;;;;;;5073437;28;20193;-84
2022/07/11 00:10:09;;;;;;;0.93;0.93;;;;;;;;;;5075429;28;20209;-85
2022/07/11 00:12:37;;;;;;;1.48;1.10;;;;;;;;;;5076670;28;20197;-83
2022/07/11 00:15:05;;;;;;;1.08;1.00;;;;;;;;;;5077143;28;20323;-84
2022/07/11 00:17:33;;;;;;;0.80;0.80;;;;;;;;;;5076901;28;20246;-84
2022/07/11 00:20:01;;;;;;;0.65;0.65;;;;;;;;;;5076746;28;20202;-84
2022/07/11 00:22:28;;;;;;;1.02;0.90;;;;;;;;;;5075456;28;20328;-83
2022/07/11 00:24:57;;;;;;;0.93;0.93;;;;;;;;;;5075806;28;20716;-84
2022/07/11 00:27:25;;;;;;;1.17;1.05;;;;;;;;;;5076876;28;20304;-84
2022/07/11 00:29:52;;;;;;;6.00;1.15;;;;;;;;;;5075956;28;20239;-83
2022/07/11 00:32:20;;;;;;;1.20;1.10;;;;;;;;;;5075571;28;20284;-84
2022/07/11 00:34:48;;;;;;;1.65;1.02;;;;;;;;;;5076891;28;20197;-83
2022/07/11 00:37:15;;;;;;;0.93;0.93;;;;;;;;;;5078311;28;20288;-84
2022/07/11 00:39:43;;;;;;;2.38;1.23;;;;;;;;;;5077442;28;20225;-84
2022/07/11 00:42:12;;;;;;;1.13;1.13;;;;;;;;;;5077779;28;20347;-84
2022/07/11 00:44:39;;;;;;;0.63;0.63;;;;;;;;;;5078889;28;20225;-84
2022/07/11 00:47:07;;;;;;;1.55;0.90;;;;;;;;;;5078103;28;20244;-84
2022/07/11 00:49:34;;;;;;;1.20;0.98;;;;;;;;;;5077038;28;20232;-84
2022/07/11 00:52:02;;;;;;;0.90;0.90;;;;;;;;;;5077669;28;20193;-84
2022/07/11 00:54:30;;;;;;;1.20;1.10;;;;;;;;;;5077476;28;20230;-84
2022/07/11 00:56:57;;;;;;;0.70;0.70;;;;;;;;;;5077461;28;20213;-84
2022/07/11 00:59:27;;;;;;;1.55;0.80;;;;;;;;;;5077552;28;20209;-84
2022/07/11 01:01:54;;;;;;;1.33;1.25;;;;;;;;;;5075785;28;20744;-83
2022/07/11 01:04:23;;;;;;;0.80;0.80;;;;;;;;;;5075234;28;20256;-83
2022/07/11 01:06:50;;;;;;;0.77;0.77;;;;;;;;;;5075298;28;20743;-83
2022/07/11 01:09:18;;;;;;;1.08;1.08;;;;;;;;;;5074830;28;20229;-83
2022/07/11 01:11:45;;;;;;;0.60;0.60;;;;;;;;;;5074165;28;20307;-83
2022/07/11 01:14:13;;;;;;;1.38;1.00;;;;;;;;;;5074529;28;20283;-83
2022/07/11 01:16:42;;;;;;;0.80;0.80;;;;;;;;;;5074606;28;20629;-83
2022/07/11 01:19:09;;;;;;;0.93;0.93;;;;;;;;;;5075210;28;20204;-83
2022/07/11 01:21:39;;;;;;;0.60;0.60;;;;;;;;;;5073988;28;20308;-83
2022/07/11 01:24:10;;;;;;;1.02;0.93;;;;;;;;;;5074509;28;20225;-83
2022/07/11 01:26:37;;;;;;;0.90;0.90;;;;;;;;;;5075195;28;20343;-82
2022/07/11 01:29:09;;;;;;;0.80;0.80;;;;;;;;;;5074717;28;20200;-83
2022/07/11 01:31:40;;;;;;;0.70;0.70;;;;;;;;;;5074544;28;20557;-82
2022/07/11 01:34:07;;;;;;;1.10;1.10;;;;;;;;;;5075042;28;20240;-83
2022/07/11 01:36:35;;;;;;;1.30;1.20;;;;;;;;;;5074420;28;20228;-83
2022/07/11 01:39:06;;;;;;;1.00;1.00;;;;;;;;;;5074956;28;20579;-83
2022/07/11 01:41:35;;;;;;;0.75;0.75;;;;;;;;;;5074936;28;20228;-83
2022/07/11 01:44:02;;;;;;;0.90;0.90;;;;;;;;;;5074564;28;20221;-83
2022/07/11 01:46:30;;;;;;;1.30;1.25;;;;;;;;;;5075510;28;20216;-83
2022/07/11 01:48:57;;;;;;;1.35;1.25;;;;;;;;;;5074520;28;20201;-83
2022/07/11 01:51:25;;;;;;;0.93;0.93;;;;;;;;;;5075058;28;20236;-82
2022/07/11 01:53:55;;;;;;;1.02;1.02;;;;;;;;;;5074282;28;20232;-83
2022/07/11 01:56:22;;;;;;;1.60;1.20;;;;;;;;;;5074653;28;20229;-83
2022/07/11 01:58:51;;;;;;;1.52;1.42;;;;;;;;;;5074149;28;20240;-83
2022/07/11 02:01:19;;;;;;;5.38;1.55;;;;;;;;;;5073564;28;20232;-83
2022/07/11 02:03:46;;;;;;;1.20;1.20;;;;;;;;;;5073472;28;20225;-83
2022/07/11 02:06:14;;;;;;;2.33;1.10;;;;;;;;;;5074555;28;20312;-83
2022/07/11 02:08:41;;;;;;;1.17;1.17;;;;;;;;;;5073595;28;20269;-83
2022/07/11 02:11:09;;;;;;;1.48;1.10;;;;;;;;;;5074002;28;20732;-83
2022/07/11 02:13:36;;;;;;;1.25;1.15;;;;;;;;;;5073119;28;20695;-84
2022/07/11 02:16:06;;;;;;;1.13;1.02;;;;;;;;;;5073883;28;20260;-84
2022/07/11 02:18:34;;;;;;;0.73;0.73;;;;;;;;;;5055740;28;20622;-83
2022/07/11 02:21:02;;;;;;;0.93;0.93;;;;;;;;;;5053117;28;20202;-83
2022/07/11 02:23:29;;;;;;;1.35;0.90;;;;;;;;;;5052400;28;20229;-84
2022/07/11 02:25:57;;;;;;;1.17;1.08;;;;;;;;;;5053292;28;20257;-83
2022/07/11 02:28:24;;;;;;;1.17;1.10;;;;;;;;;;5052908;28;20229;-83
2022/07/11 02:30:52;;;;;;;0.70;0.70;;;;;;;;;;5052626;28;20237;-84
2022/07/11 02:33:21;;;;;;;1.42;1.10;;;;;;;;;;5052039;28;20233;-83
2022/07/11 02:35:49;;;;;;;1.15;1.15;;;;;;;;;;5052592;28;20271;-83
2022/07/11 02:38:16;;;;;;;0.88;0.88;;;;;;;;;;5052760;28;20229;-83
2022/07/11 02:40:44;;;;;;;1.15;0.93;;;;;;;;;;5052890;28;20284;-83
2022/07/11 02:43:12;;;;;;;0.88;0.88;;;;;;;;;;5052141;28;20624;-83
2022/07/11 02:45:40;;;;;;;1.02;1.02;;;;;;;;;;5052092;28;20253;-83
2022/07/11 02:48:07;;;;;;;1.00;1.00;;;;;;;;;;5066558;28;20209;-84
2022/07/11 02:50:37;;;;;;;0.95;0.95;;;;;;;;;;5072678;28;20229;-83
2022/07/11 02:53:04;;;;;;;0.80;0.80;;;;;;;;;;5071909;28;20331;-84
2022/07/11 02:55:32;;;;;;;1.10;1.10;;;;;;;;;;5072330;28;20716;-84
2022/07/11 02:57:59;;;;;;;1.02;0.95;;;;;;;;;;5072345;28;20213;-83
2022/07/11 03:00:27;;;;;;;1.02;1.00;;;;;;;;;;5072713;28;20691;-84
2022/07/11 03:02:55;;;;;;;0.95;0.95;;;;;;;;;;5071802;28;20232;-84
2022/07/11 03:05:22;;;;;;;0.70;0.70;;;;;;;;;;5071991;28;20311;-83
2022/07/11 03:07:51;;;;;;;0.90;0.90;;;;;;;;;;5072915;28;20236;-84
2022/07/11 03:10:19;;;;;;;1.40;1.30;;;;;;;;;;5072832;28;20280;-83
2022/07/11 03:12:46;;;;;;;0.80;0.80;;;;;;;;;;5071955;28;20228;-83
2022/07/11 03:15:14;;;;;;;1.00;1.00;;;;;;;;;;5072456;28;20259;-83
2022/07/11 03:17:41;;;;;;;1.52;0.90;;;;;;;;;;5072111;28;20236;-83
2022/07/11 03:20:11;;;;;;;0.93;0.93;;;;;;;;;;5072529;28;20229;-84
2022/07/11 03:22:38;;;;;;;1.02;1.02;;;;;;;;;;5071854;28;20200;-83
2022/07/11 03:25:09;;;;;;;0.90;0.90;;;;;;;;;;5072313;28;20304;-84
2022/07/11 03:27:36;;;;;;;0.73;0.73;;;;;;;;;;5070290;28;20301;-84
2022/07/11 03:30:05;;;;;;;2.20;1.08;;;;;;;;;;5072628;28;20296;-83
2022/07/11 03:32:32;;;;;;;0.75;0.75;;;;;;;;;;5071434;28;20704;-84
2022/07/11 03:37:45;;;;;;;0.80;0.80;;;;;;;;;;5072100;28;20211;-84
2022/07/11 03:40:15;;;;;;;0.60;0.60;;;;;;;;;;5072418;28;20197;-84
2022/07/11 03:42:43;;;;;;;0.90;0.60;;;;;;;;;;5071587;28;20665;-84
2022/07/11 03:45:11;;;;;;;0.70;0.50;;;;;;;;;;5072181;28;20737;-83
2022/07/11 03:47:39;;;;;;;0.52;0.52;;;;;;;;;;5075448;28;20219;-84
2022/07/11 03:50:07;;;;;;;1.60;0.80;;;;;;;;;;5075616;28;20286;-83
2022/07/11 03:52:35;;;;;;;0.47;0.47;;;;;;;;;;5075316;28;20197;-84
2022/07/11 03:55:02;;;;;;;0.75;0.70;;;;;;;;;;5075423;28;20311;-83
2022/07/11 03:57:33;;;;;;;0.50;0.50;;;;;;;;;;5075410;28;20669;-83
2022/07/11 04:00:03;;;;;;;0.63;0.50;;;;;;;;;;5075559;28;20678;-83
2022/07/11 04:02:31;;;;;;;0.63;0.63;;;;;;;;;;5073147;28;20197;-84
2022/07/11 04:04:58;;;;;;;0.50;0.50;;;;;;;;;;5075535;28;20286;-84
2022/07/11 04:07:28;;;;;;;0.57;0.57;;;;;;;;;;5075482;28;20320;-83
2022/07/11 04:09:55;;;;;;;0.52;0.52;;;;;;;;;;5075771;28;20197;-84
2022/07/11 04:12:23;;;;;;;0.50;0.50;;;;;;;;;;5074656;28;20645;-84
2022/07/11 04:14:52;;;;;;;0.50;0.50;;;;;;;;;;5074926;28;20207;-84
2022/07/11 04:17:19;;;;;;;1.45;0.50;;;;;;;;;;5075514;28;20736;-83
2022/07/11 04:19:47;;;;;;;0.65;0.65;;;;;;;;;;5075532;28;20200;-84
2022/07/11 04:22:14;;;;;;;0.50;0.50;;;;;;;;;;5074193;28;20280;-84
2022/07/11 04:24:42;;;;;;;0.32;0.32;;;;;;;;;;5075027;28;20750;-84
2022/07/11 04:27:09;;;;;;;1.08;0.60;;;;;;;;;;5075221;28;20212;-83
2022/07/11 04:29:37;;;;;;;0.95;0.60;;;;;;;;;;5075121;28;20199;-83
2022/07/11 04:32:07;;;;;;;0.45;0.45;;;;;;;;;;5074224;28;20287;-83
2022/07/11 04:34:35;;;;;;;0.60;0.60;;;;;;;;;;5075182;28;20205;-83
2022/07/11 04:37:03;;;;;;;0.57;0.57;;;;;;;;;;5074526;28;20263;-84
2022/07/11 04:39:32;;;;;;;0.68;0.60;;;;;;;;;;5074593;28;20208;-84
2022/07/11 04:42:00;;;;;;;0.60;0.60;;;;;;;;;;5074968;28;20254;-84
2022/07/11 04:44:28;;;;;;;0.50;0.50;;;;;;;;;;5075524;28;20696;-84
2022/07/11 04:46:56;;;;;;;0.70;0.70;;;;;;;;;;5075922;28;20320;-85
2022/07/11 04:49:24;;;;;;;0.60;0.57;;;;;;;;;;5078737;28;20209;-83
2022/07/11 04:51:52;;;;;;;0.55;0.55;;;;;;;;;;5076453;28;20296;-83
2022/07/11 04:54:20;;;;;;;0.60;0.40;;;;;;;;;;5076179;28;20225;-84
2022/07/11 04:56:47;;;;;;;0.50;0.50;;;;;;;;;;5075038;28;20303;-84
2022/07/11 04:59:15;;;;;;;0.60;0.50;;;;;;;;;;5074850;28;20288;-83
2022/07/11 05:01:42;;;;;;;0.60;0.60;;;;;;;;;;5073836;28;20291;-84
2022/07/11 05:04:10;;;;;;;1.02;0.38;;;;;;;;;;5074684;28;21024;-85
2022/07/11 05:06:39;;;;;;;0.50;0.50;;;;;;;;;;5074582;28;20707;-83
2022/07/11 05:09:07;;;;;;;0.57;0.57;;;;;;;;;;5074666;28;20749;-83
2022/07/11 05:11:35;;;;;;;0.60;0.60;;;;;;;;;;5074647;28;20209;-83
2022/07/11 05:14:03;;;;;;;0.52;0.52;;;;;;;;;;5073915;28;20205;-83
2022/07/11 05:16:30;;;;;;;0.40;0.40;;;;;;;;;;5074758;28;20307;-83
2022/07/11 05:18:58;;;;;;;0.75;0.63;;;;;;;;;;5075264;28;20700;-82
2022/07/11 05:21:25;;;;;;;0.73;0.73;;;;;;;;;;5075081;28;20635;-81
2022/07/11 05:23:54;;;;;;;0.57;0.57;;;;;;;;;;5073287;28;20246;-83
2022/07/11 05:26:22;;;;;;;0.43;0.43;;;;;;;;;;5074171;28;20271;-82
2022/07/11 05:28:49;;;;;;;0.60;0.60;;;;;;;;;;5074200;28;20201;-82
2022/07/11 05:31:17;;;;;;;0.73;0.73;;;;;;;;;;5073610;28;20232;-83
2022/07/11 05:33:44;;;;;;;0.60;0.60;;;;;;;;;;5073190;28;20284;-82
2022/07/11 05:36:12;;;;;;;0.40;0.40;;;;;;;;;;5073770;28;20225;-82
2022/07/11 05:38:39;;;;;;;0.50;0.50;;;;;;;;;;5074110;28;20787;-83
2022/07/11 05:41:08;;;;;;;0.50;0.50;;;;;;;;;;5074569;28;20264;-82
2022/07/11 05:43:35;;;;;;;0.63;0.60;;;;;;;;;;5074767;28;20292;-82
2022/07/11 05:46:06;;;;;;;0.47;0.47;;;;;;;;;;5073928;28;20317;-83
2022/07/11 05:48:34;;;;;;;0.50;0.50;;;;;;;;;;5073158;28;20295;-82
2022/07/11 05:51:01;;;;;;;0.50;0.50;;;;;;;;;;5073297;28;20292;-85
2022/07/11 05:53:29;;;;;;;0.60;0.60;;;;;;;;;;5072817;28;20640;-81
2022/07/11 05:55:56;;;;;;;0.38;0.38;;;;;;;;;;5072697;28;20307;-82
2022/07/11 05:58:25;;;;;;;0.40;0.40;;;;;;;;;;5072836;28;20292;-82
2022/07/11 06:00:52;;;;;;;0.60;0.60;;;;;;;;;;5072851;28;20649;-84
2022/07/11 06:03:20;;;;;;;0.40;0.40;;;;;;;;;;5072596;28;20240;-81
2022/07/11 06:05:49;;;;;;;0.55;0.55;;;;;;;;;;5074863;28;20303;-83
2022/07/11 06:11:01;;;;;;;0.65;0.65;;;;;;;;;;5073731;28;20259;-81
2022/07/11 06:13:31;;;;;;;0.60;0.60;;;;;;;;;;5072882;28;20197;-83
2022/07/11 06:15:58;;;;;;;0.50;0.50;;;;;;;;;;5074848;28;20316;-83
2022/07/11 06:18:27;;;;;;;0.98;0.70;;;;;;;;;;5073685;28;20212;-83
2022/07/11 06:20:54;;;;;;;0.60;0.38;;;;;;;;;;5069179;28;20286;-84
2022/07/11 06:23:22;;;;;;;0.55;0.55;;;;;;;;;;5077503;28;20285;-82
2022/07/11 06:25:50;;;;;;;0.50;0.50;;;;;;;;;;5072861;28;20354;-83
2022/07/11 06:28:17;;;;;;;0.40;0.40;;;;;;;;;;5072811;28;20285;-85
2022/07/11 06:30:46;;;;;;;0.88;0.88;;;;;;;;;;5072588;28;20640;-83
2022/07/11 06:33:17;;;;;;;0.50;0.50;;;;;;;;;;5071590;28;20232;-84
2022/07/11 06:35:45;;;;;;;0.40;0.40;;;;;;;;;;5072105;28;20609;-83
2022/07/11 06:38:12;;;;;;;0.28;0.28;;;;;;;;;;5071909;28;20193;-83
2022/07/11 06:40:41;;;;;;;0.47;0.47;;;;;;;;;;5072233;28;20208;-83
2022/07/11 06:43:09;;;;;;;0.40;0.40;;;;;;;;;;5069279;28;20201;-83
2022/07/11 06:45:37;;;;;;;0.50;0.50;;;;;;;;;;5060498;28;20224;-83
2022/07/11 06:48:06;;;;;;;0.50;0.50;;;;;;;;;;5065749;28;20706;-82
2022/07/11 06:50:34;;;;;;;1.00;0.60;;;;;;;;;;5063607;28;20236;-82
2022/07/11 06:53:01;;;;;;;1.08;0.98;;;;;;;;;;5071396;28;20371;-82
2022/07/11 06:55:29;;;;;;;2.53;0.90;;;;;;;;;;5072312;28;20307;-83
2022/07/11 06:57:56;;;;;;;0.65;0.65;;;;;;;;;;5071638;28;20283;-82
2022/07/11 07:00:24;;;;;;;0.88;0.70;;;;;;;;;;5065998;28;20205;-83
2022/07/11 07:02:52;;;;;;;1.52;0.80;;;;;;;;;;5050834;28;20749;-83
2022/07/11 07:05:22;;;;;;;0.73;0.73;;;;;;;;;;5051159;28;20226;-82
2022/07/11 07:07:49;;;;;;;1.27;0.70;;;;;;;;;;5051741;28;20701;-82
2022/07/11 07:10:17;;;;;;;1.33;0.70;;;;;;;;;;5051789;28;20281;-83
2022/07/11 07:12:45;;;;;;;1.17;0.90;;;;;;;;;;5050832;28;20205;-83
2022/07/11 07:15:13;;;;;;;0.70;0.70;;;;;;;;;;5051682;28;20225;-82
2022/07/11 07:17:41;;;;;;;0.75;0.75;;;;;;;;;;5062098;28;20239;-82
2022/07/11 07:20:11;;;;;;;0.90;0.85;;;;;;;;;;5074049;28;20212;-82
2022/07/11 07:22:40;;;;;;;0.40;0.40;;;;;;;;;;5075659;28;20205;-85
2022/07/11 07:25:10;;;;;;;0.50;0.50;;;;;;;;;;5075870;28;20221;-82
2022/07/11 07:27:37;;;;;;;0.60;0.60;;;;;;;;;;5069776;28;20220;-82
2022/07/11 07:30:06;;;;;;;0.60;0.60;;;;;;;;;;5057236;28;20198;-82
2022/07/11 07:32:34;;;;;;;0.70;0.70;;;;;;;;;;5068837;28;20207;-82
2022/07/11 07:35:02;;;;;;;0.57;0.57;;;;;;;;;;5075998;28;20739;-83
2022/07/11 07:37:29;;;;;;;0.80;0.80;;;;;;;;;;5076213;28;20287;-82
2022/07/11 07:39:58;;;;;;;1.10;1.10;;;;;;;;;;5076270;28;20276;-83
2022/07/11 07:42:25;;;;;;;0.82;0.70;;;;;;;;;;5075110;28;20291;-82
2022/07/11 07:44:53;;;;;;;0.80;0.80;;;;;;;;;;5075001;28;20200;-84
2022/07/11 07:47:21;;;;;;;0.70;0.68;;;;;;;;;;5075799;28;20232;-82
2022/07/11 07:49:48;;;;;;;0.80;0.80;;;;;;;;;;5075875;28;20207;-83
2022/07/11 07:52:16;;;;;;;0.70;0.70;;;;;;;;;;5075060;28;20291;-83
2022/07/11 07:54:44;;;;;;;0.98;0.98;;;;;;;;;;5075817;28;20594;-83
2022/07/11 07:57:13;;;;;;;1.27;0.98;;;;;;;;;;5075824;28;20283;-83
2022/07/11 07:59:40;;;;;;;1.13;1.10;;;;;;;;;;5075964;28;20642;-83
2022/07/11 08:02:07;;;;;;;1.00;1.00;;;;;;;;;;5075026;28;20228;-83
2022/07/11 08:04:35;;;;;;;0.88;0.88;;;;;;;;;;5075720;28;20258;-83
2022/07/11 08:07:02;;;;;;;0.88;0.88;;;;;;;;;;5074802;28;20711;-83
2022/07/11 08:09:30;;;;;;;0.65;0.65;;;;;;;;;;5075219;28;20288;-82
2022/07/11 08:11:57;;;;;;;0.85;0.85;;;;;;;;;;5068462;28;20289;-82
2022/07/11 08:14:27;;;;;;;0.68;0.68;;;;;;;;;;5059585;28;20284;-83
2022/07/11 08:16:54;;;;;;;0.93;0.93;;;;;;;;;;5060999;28;20220;-83
2022/07/11 08:19:22;;;;;;;1.10;0.80;;;;;;;;;;5062744;28;20225;-83
2022/07/11 08:21:49;;;;;;;0.75;0.75;;;;;;;;;;5054131;28;20692;-83
2022/07/11 08:24:17;;;;;;;0.63;0.63;;;;;;;;;;5061086;28;20233;-83
2022/07/11 08:26:44;;;;;;;0.77;0.77;;;;;;;;;;5061010;28;20256;-84
2022/07/11 08:29:11;;;;;;;0.90;0.90;;;;;;;;;;5059740;28;20312;-84
2022/07/11 08:31:41;;;;;;;1.00;1.00;;;;;;;;;;5064386;28;20201;-84
2022/07/11 08:34:08;;;;;;;0.75;0.75;;;;;;;;;;5064295;28;20196;-84
2022/07/11 08:36:36;;;;;;;0.65;0.65;;;;;;;;;;5063289;28;20300;-83
2022/07/11 08:39:04;;;;;;;0.70;0.70;;;;;;;;;;5064987;28;20602;-83
2022/07/11 08:41:33;;;;;;;0.80;0.80;;;;;;;;;;5064667;28;20193;-83
2022/07/11 08:44:01;;;;;;;1.05;0.70;;;;;;;;;;5062680;28;20285;-83
2022/07/11 08:46:31;;;;;;;0.50;0.50;;;;;;;;;;5065369;28;20225;-83
2022/07/11 08:49:01;;;;;;;0.70;0.70;;;;;;;;;;5066335;28;20671;-83
2022/07/11 08:51:29;;;;;;;0.70;0.70;;;;;;;;;;5064636;28;20218;-83
2022/07/11 08:53:56;;;;;;;1.13;1.02;;;;;;;;;;5063421;28;20225;-81
2022/07/11 08:56:27;;;;;;;0.68;0.68;;;;;;;;;;5073174;28;20300;-82
2022/07/11 08:58:55;;;;;;;0.60;0.60;;;;;;;;;;5075528;28;20203;-82
2022/07/11 09:01:29;;;;;;;0.68;0.68;;;;;;;;;;5072025;28;20565;-81
2022/07/11 09:03:57;;;;;;;0.70;0.70;;;;;;;;;;5055661;28;20193;-82
2022/07/11 09:06:26;;;;;;;0.70;0.70;;;;;;;;;;5056231;28;20304;-81
2022/07/11 09:09:00;;;;;;;0.90;0.90;;;;;;;;;;5055757;28;20312;-82
2022/07/11 09:11:28;;;;;;;0.90;0.90;;;;;;;;;;5071517;28;20250;-81
2022/07/11 09:13:56;;;;;;;0.75;0.75;;;;;;;;;;5074142;28;20288;-82
2022/07/11 09:16:26;;;;;;;1.10;1.10;;;;;;;;;;5059636;28;20347;-81
2022/07/11 09:18:54;;;;;;;1.30;1.20;;;;;;;;;;5054567;28;20233;-81
2022/07/11 09:26:54;;;;;;;0.80;0.80;;;;;;;;;;5054321;28;20721;-80
2022/07/11 09:29:24;;;;;;;0.45;0.45;;;;;;;;;;5059002;28;20212;-81
2022/07/11 09:31:52;;;;;;;0.68;0.68;;;;;;;;;;5059053;28;20198;-81
2022/07/11 09:34:21;;;;;;;1.17;1.08;;;;;;;;;;5072564;28;20285;-81
2022/07/11 09:36:51;;;;;;;0.47;0.47;;;;;;;;;;5069213;28;20725;-80
2022/07/11 09:39:22;;;;;;;0.60;0.60;;;;;;;;;;5070873;28;20636;-79
2022/07/11 09:41:52;;;;;;;0.60;0.60;;;;;;;;;;5073571;28;20233;-80
2022/07/11 09:44:23;;;;;;;0.60;0.40;;;;;;;;;;5073897;28;20577;-81
2022/07/11 09:46:52;;;;;;;0.38;0.38;;;;;;;;;;5074631;28;20225;-81
2022/07/11 09:49:32;;;;;;;0.60;0.60;;;;;;;;;;5072305;28;20722;-80
2022/07/11 09:52:09;;;;;;;0.70;0.70;;;;;;;;;;5073620;28;20207;-80
2022/07/11 09:54:55;;;;;;;0.50;0.50;;;;;;;;;;5074375;28;20300;-81
2022/07/11 09:57:31;;;;;;;0.43;0.43;;;;;;;;;;5074487;28;20205;-81
2022/07/11 09:59:59;;;;;;;0.50;0.50;;;;;;;;;;5075433;28;20307;-80
2022/07/11 10:02:27;;;;;;;0.82;0.45;;;;;;;;;;5073818;28;20244;-80
2022/07/11 10:04:54;;;;;;;0.70;0.70;;;;;;;;;;5074806;28;20284;-81
2022/07/11 10:07:22;;;;;;;0.60;0.60;;;;;;;;;;5074602;28;20288;-81
2022/07/11 10:09:51;;;;;;;0.60;0.60;;;;;;;;;;5073820;28;20259;-80
2022/07/11 10:12:19;;;;;;;20.80;1.10;;;;;;;;;;5073252;28;20292;-79
2022/07/11 10:14:47;;;;;;;0.70;0.70;;;;;;;;;;5072490;28;20299;-81
2022/07/11 10:17:24;;;;;;;0.50;0.50;;;;;;;;;;5073629;28;20288;-81
2022/07/11 10:19:58;;;;;;;0.63;0.63;;;;;;;;;;5073183;28;20573;-82
2022/07/11 10:22:32;;;;;;;1.23;1.00;;;;;;;;;;5073135;28;20264;-81
2022/07/11 10:25:08;;;;;;;0.68;0.68;;;;;;;;;;5074381;28;20323;-82
2022/07/11 10:27:41;;;;;;;0.30;0.30;;;;;;;;;;5074432;28;20283;-82
2022/07/11 10:30:09;;;;;;;1.23;1.08;;;;;;;;;;5073812;28;20228;-81
2022/07/11 10:32:59;;;;;;;0.80;0.80;;;;;;;;;;5073075;28;20212;-81
2022/07/11 10:35:30;;;;;;;0.85;0.68;;;;;;;;;;5073618;28;20257;-81
2022/07/11 10:37:58;;;;;;;0.82;0.82;;;;;;;;;;5073827;28;20685;-81
2022/07/11 10:40:48;;;;;;;0.50;0.50;;;;;;;;;;5073848;28;20212;-82
2022/07/11 10:43:32;;;;;;;0.80;0.80;;;;;;;;;;5073540;28;20239;-82
2022/07/11 10:46:01;;;;;;;0.70;0.70;;;;;;;;;;5072397;28;20724;-82
2022/07/11 10:48:31;;;;;;;0.80;0.80;;;;;;;;;;5072714;28;20232;-82
2022/07/11 10:51:16;;;;;;;1.15;0.90;;;;;;;;;;5072894;28;20193;-81
2022/07/11 10:53:49;;;;;;;0.70;0.70;;;;;;;;;;5062968;28;20264;-81
2022/07/11 10:56:45;;;;;;;1.10;1.10;;;;;;;;;;5063817;28;20323;-81
2022/07/11 10:59:16;;;;;;;0.65;0.65;;;;;;;;;;5064795;28;20756;-81
2022/07/11 11:02:11;;;;;;;0.70;0.70;;;;;;;;;;5062380;28;20666;-82
2022/07/11 11:05:00;;;;;;;0.82;0.82;;;;;;;;;;5064607;28;20197;-82
2022/07/11 11:07:33;;;;;;;0.52;0.52;;;;;;;;;;5060940;28;20192;-82
2022/07/11 11:10:02;;;;;;;0.85;0.85;;;;;;;;;;5075009;28;20693;-81
2022/07/11 11:13:14;;;;;;;0.68;0.68;;;;;;;;;;5073617;28;20232;-82
2022/07/11 11:15:43;;;;;;;0.75;0.75;;;;;;;;;;5073821;28;20216;-81
2022/07/11 11:18:37;;;;;;;1.13;0.50;;;;;;;;;;5064911;28;20643;-81
2022/07/11 11:21:19;;;;;;;0.70;0.70;;;;;;;;;;5064412;28;20193;-83
2022/07/11 11:24:02;;;;;;;0.50;0.50;;;;;;;;;;5072943;28;20685;-82
2022/07/11 11:26:51;;;;;;;0.73;0.73;;;;;;;;;;5059964;28;20340;-81
2022/07/11 11:29:26;;;;;;;0.70;0.70;;;;;;;;;;5068224;28;20223;-81
2022/07/11 11:31:57;;;;;;;0.57;0.57;;;;;;;;;;5067125;28;20197;-81
2022/07/11 11:34:25;;;;;;;0.82;0.82;;;;;;;;;;5066337;28;20280;-82
2022/07/11 11:36:59;;;;;;;0.80;0.80;;;;;;;;;;5074368;28;20303;-83
2022/07/11 11:39:29;;;;;;;1.00;0.80;;;;;;;;;;5074370;28;20602;-81
2022/07/11 11:42:10;;;;;;;1.05;0.98;;;;;;;;;;5074049;28;20292;-82
2022/07/11 11:44:55;;;;;;;0.70;0.70;;;;;;;;;;5074570;28;20211;-81
2022/07/11 11:47:23;;;;;;;1.02;0.77;;;;;;;;;;5074326;28;20205;-81
2022/07/11 11:49:51;;;;;;;0.73;0.73;;;;;;;;;;5073033;28;20213;-82
2022/07/11 11:52:19;;;;;;;0.63;0.63;;;;;;;;;;5073326;28;20272;-82
2022/07/11 11:54:53;;;;;;;0.60;0.60;;;;;;;;;;5074439;28;20201;-81
2022/07/11 11:57:24;;;;;;;1.52;0.88;;;;;;;;;;5073958;28;20695;-81
2022/07/11 11:59:53;;;;;;;0.60;0.60;;;;;;;;;;5075220;28;20677;-83
2022/07/11 12:02:29;;;;;;;0.77;0.77;;;;;;;;;;5074108;28;20292;-82
2022/07/11 12:04:57;;;;;;;1.08;1.02;;;;;;;;;;5074184;28;20284;-82
2022/07/11 12:07:31;;;;;;;0.90;0.90;;;;;;;;;;5077226;28;20206;-83
2022/07/11 12:10:03;;;;;;;0.75;0.75;;;;;;;;;;5077987;28;20274;-82
2022/07/11 12:12:45;;;;;;;0.70;0.70;;;;;;;;;;5077689;28;20208;-82
2022/07/11 12:16:39;;;;;;;1.00;1.00;;;;;;;;;;5078177;28;20216;-83
2022/07/11 12:18:23;;;;;;;1.25;1.13;;;;;;;;;;5077829;28;20212;-82
2022/07/11 12:20:51;;;;;;;1.00;1.00;;;;;;;;;;5077611;28;20201;-82
2022/07/11 12:23:19;;;;;;;0.70;0.70;;;;;;;;;;5075087;28;20301;-81
2022/07/11 12:25:48;;;;;;;0.60;0.60;;;;;;;;;;5076024;28;20308;-82
2022/07/11 12:28:16;;;;;;;0.70;0.70;;;;;;;;;;5077417;28;20197;-82
2022/07/11 12:30:45;;;;;;;0.70;0.70;;;;;;;;;;5077652;28;20297;-82
2022/07/11 12:33:14;;;;;;;1.20;1.15;;;;;;;;;;5056891;28;20717;-82
2022/07/11 12:35:56;;;;;;;1.42;1.23;;;;;;;;;;5056633;28;20305;-82
2022/07/11 12:38:24;;;;;;;1.55;1.20;;;;;;;;;;5055944;28;20251;-81
2022/07/11 12:41:03;;;;;;;0.73;0.73;;;;;;;;;;5054531;28;20287;-81
2022/07/11 12:46:30;;;;;;;1.00;1.00;;;;;;;;;;5056615;28;20275;-80
2022/07/11 12:49:02;;;;;;;1.52;1.42;;;;;;;;;;5065593;28;20193;-81
2022/07/11 12:51:32;;;;;;;1.05;0.95;;;;;;;;;;5056849;28;20224;-82
2022/07/11 12:54:02;;;;;;;1.08;1.08;;;;;;;;;;5054745;28;20220;-82
2022/07/11 12:56:29;;;;;;;1.40;1.30;;;;;;;;;;5054958;28;20655;-81
2022/07/11 12:58:57;;;;;;;1.20;1.20;;;;;;;;;;5055127;28;20202;-82
2022/07/11 13:01:25;;;;;;;1.08;1.08;;;;;;;;;;5055688;28;20197;-81
2022/07/11 13:03:53;;;;;;;1.38;1.27;;;;;;;;;;5055101;28;20212;-81
2022/07/11 13:08:42;;;;;;;1.13;1.10;;;;;;;;;;5061763;28;20307;-82
2022/07/11 13:09:16;;;;;;;1.00;1.00;;;;;;;;;;5063493;28;20194;-82
2022/07/11 13:11:43;;;;;;;1.48;1.38;;;;;;;;;;5064857;28;20732;-82
2022/07/11 13:16:52;;;;;;;1.20;1.20;;;;;;;;;;5066796;28;20219;-82
2022/07/11 13:19:21;;;;;;;0.80;0.80;;;;;;;;;;5064419;28;20201;-80
2022/07/11 13:21:49;;;;;;;2.22;1.38;;;;;;;;;;5065254;28;20197;-82
2022/07/11 13:24:16;;;;;;;1.25;1.15;;;;;;;;;;5067174;28;20193;-81
2022/07/11 13:26:44;;;;;;;1.10;1.10;;;;;;;;;;5065402;28;20277;-82
2022/07/11 13:29:11;;;;;;;1.50;1.40;;;;;;;;;;5059249;28;20292;-82
2022/07/11 13:31:39;;;;;;;1.02;1.02;;;;;;;;;;5055049;28;20311;-82
2022/07/11 13:34:06;;;;;;;1.15;1.15;;;;;;;;;;5055882;28;20284;-82
2022/07/11 13:36:35;;;;;;;8.23;1.70;;;;;;;;;;5056490;28;20692;-82
2022/07/11 13:39:03;;;;;;;1.58;1.23;;;;;;;;;;5056020;28;20217;-82
2022/07/11 13:41:30;;;;;;;1.13;1.13;;;;;;;;;;5059346;28;20284;-81
2022/07/11 13:43:58;;;;;;;1.15;1.10;;;;;;;;;;5055682;28;20292;-82
2022/07/11 13:46:25;;;;;;;1.35;1.27;;;;;;;;;;5099740;23;20247;-83
2022/07/11 13:48:53;;;;;;;1.45;1.35;;;;;;;;;;5088447;28;20699;-80
2022/07/11 13:51:20;;;;;;;1.88;1.30;;;;;;;;;;5073605;28;20259;-82
2022/07/11 13:53:49;;;;;;;1.35;1.25;;;;;;;;;;5075302;28;20223;-84
2022/07/11 13:56:17;;;;;;;6.72;1.20;;;;;;;;;;5076041;28;20287;-82
2022/07/11 13:58:44;;;;;;;1.25;1.05;;;;;;;;;;5090858;23;20312;-82
2022/07/11 14:01:12;;;;;;;0.90;0.90;;;;;;;;;;5096209;28;20207;-82
2022/07/11 14:03:39;;;;;;;0.95;0.95;;;;;;;;;;5096268;28;20300;-81
2022/07/11 14:06:07;;;;;;;0.90;0.90;;;;;;;;;;5096596;28;20200;-82
2022/07/11 14:08:34;;;;;;;0.93;0.93;;;;;;;;;;5095959;28;20251;-82
2022/07/11 14:11:03;;;;;;;1.10;1.10;;;;;;;;;;5097367;28;20256;-82
2022/07/11 14:13:31;;;;;;;1.20;1.10;;;;;;;;;;5097876;28;20240;-83
2022/07/11 14:15:59;;;;;;;1.60;1.50;;;;;;;;;;5098240;28;20292;-83
2022/07/11 14:18:26;;;;;;;1.33;1.33;;;;;;;;;;5097904;28;20197;-82
2022/07/11 14:20:55;;;;;;;1.10;1.10;;;;;;;;;;5097705;28;20250;-82
2022/07/11 14:23:24;;;;;;;1.70;1.60;;;;;;;;;;5098286;28;20246;-82
2022/07/11 14:25:52;;;;;;;1.95;1.75;;;;;;;;;;5098163;28;20735;-82
2022/07/11 14:28:21;;;;;;;1.00;1.00;;;;;;;;;;5096982;28;20243;-82
2022/07/11 14:30:49;;;;;;;1.00;1.00;;;;;;;;;;5096098;28;20312;-82
2022/07/11 14:33:17;;;;;;;1.30;1.30;;;;;;;;;;5096774;28;20230;-82
2022/07/11 14:35:44;;;;;;;1.45;1.35;;;;;;;;;;5096929;28;20727;-82
2022/07/11 14:38:12;;;;;;;1.70;1.60;;;;;;;;;;5096393;28;20232;-82
2022/07/11 14:40:40;;;;;;;1.90;1.80;;;;;;;;;;5098175;28;20641;-81
2022/07/11 14:43:07;;;;;;;2.15;1.95;;;;;;;;;;5098259;28;20447;-82
2022/07/11 14:45:36;;;;;;;1.85;1.75;;;;;;;;;;5097567;28;20246;-81
2022/07/11 14:48:04;;;;;;;1.00;1.00;;;;;;;;;;5097880;28;20264;-81
2022/07/11 14:50:33;;;;;;;1.45;1.35;;;;;;;;;;5098142;28;20350;-81
2022/07/11 14:53:01;;;;;;;1.40;1.33;;;;;;;;;;5097822;28;20244;-82
2022/07/11 14:55:28;;;;;;;1.23;1.13;;;;;;;;;;5098403;28;20657;-81
2022/07/11 14:57:56;;;;;;;1.65;1.55;;;;;;;;;;5096763;28;20235;-80
2022/07/11 15:00:24;;;;;;;1.05;1.05;;;;;;;;;;5094746;28;20228;-80
2022/07/11 15:05:37;;;;;;;1.60;1.50;;;;;;;;;;5095607;28;20182;-81
2022/07/11 15:13:36;;;;;;;1.67;1.58;;;;;;;;;;5095531;28;20259;-81
2022/07/11 15:16:03;;;;;;;1.75;1.65;;;;;;;;;;5094750;28;20200;-81
2022/07/11 15:18:32;;;;;;;1.48;1.38;;;;;;;;;;5094419;28;20307;-81
2022/07/11 15:21:00;;;;;;;1.63;1.52;;;;;;;;;;5094341;28;20635;-80